createdAt,value
2019-03-13T00:00:03.100Z,4.5
2019-03-13T00:05:04.751Z,4.45
2019-03-13T00:10:02.060Z,4.43
2019-03-13T00:15:05.502Z,4.24
2019-03-13T00:20:05.024Z,4.16
2019-03-13T00:25:04.790Z,4.13
2019-03-13T00:30:03.231Z,4.14
2019-03-13T00:35:04.567Z,4.03
2019-03-13T00:40:04.132Z,4.01
2019-03-13T00:45:02.299Z,4.07
2019-03-13T00:50:04.244Z,4.16
2019-03-13T00:55:03.941Z,4.15
2019-03-13T01:00:02.281Z,4.27
2019-03-13T01:05:04.139Z,4.29
2019-03-13T01:10:05.187Z,4.34
2019-03-13T01:15:04.115Z,4.35
2019-03-13T01:20:05.095Z,4.39
2019-03-13T01:25:04.371Z,4.49
2019-03-13T01:30:02.610Z,4.47
2019-03-13T01:35:04.058Z,4.37
2019-03-13T01:40:03.323Z,4.33
2019-03-13T01:45:04.336Z,4.32
2019-03-13T01:50:04.159Z,4.36
2019-03-13T01:55:03.093Z,4.36
2019-03-13T02:00:03.645Z,4.36
2019-03-13T02:05:03.985Z,4.32
2019-03-13T02:10:02.304Z,4.26
2019-03-13T02:15:02.236Z,4.23
2019-03-13T02:20:03.863Z,4.29
2019-03-13T02:25:07.653Z,4.32
2019-03-13T02:30:03.239Z,4.36
2019-03-13T02:35:06.756Z,4.36
2019-03-13T02:40:04.333Z,4.29
2019-03-13T02:45:02.234Z,4.39
2019-03-13T02:50:02.528Z,4.43
2019-03-13T02:55:02.774Z,4.43
2019-03-13T03:00:02.030Z,4.45
2019-03-13T03:05:03.208Z,4.56
2019-03-13T03:10:03.188Z,4.53
2019-03-13T03:15:02.509Z,4.54
2019-03-13T03:20:03.452Z,4.53
2019-03-13T03:25:04.442Z,4.57
2019-03-13T03:30:04.296Z,4.69
2019-03-13T03:35:07.327Z,4.82
2019-03-13T03:40:06.046Z,4.79
2019-03-13T03:45:06.567Z,4.83
2019-03-13T03:50:06.301Z,4.94
2019-03-13T03:55:04.316Z,4.9
2019-03-13T04:00:04.858Z,4.9
2019-03-13T04:05:03.418Z,4.91
2019-03-13T04:10:03.179Z,4.88
2019-03-13T04:15:04.535Z,4.82
2019-03-13T04:20:04.649Z,4.81
2019-03-13T04:25:04.807Z,4.77
2019-03-13T04:30:02.436Z,4.73
2019-03-13T04:35:04.147Z,4.64
2019-03-13T04:40:04.745Z,4.75
2019-03-13T04:45:02.341Z,4.68
2019-03-13T04:50:03.962Z,4.74
2019-03-13T04:55:04.666Z,4.74
2019-03-13T05:00:02.273Z,4.71
2019-03-13T05:05:03.832Z,4.76
2019-03-13T05:10:02.962Z,4.84
2019-03-13T05:15:03.869Z,4.9
2019-03-13T05:20:04.055Z,4.82
2019-03-13T05:25:06.255Z,4.81
2019-03-13T05:30:01.814Z,4.96
2019-03-13T05:35:04.564Z,5.04
2019-03-13T05:40:05.898Z,5.06
2019-03-13T05:45:02.376Z,5.04
2019-03-13T05:50:06.832Z,5.03
2019-03-13T05:55:04.979Z,5.04
2019-03-13T06:00:01.920Z,5.21
2019-03-13T06:05:03.069Z,5.25
2019-03-13T06:10:02.676Z,5.28
2019-03-13T06:15:03.720Z,5.26
2019-03-13T06:20:03.009Z,5.25
2019-03-13T06:25:04.216Z,5.21
2019-03-13T06:30:03.553Z,5.23
2019-03-13T06:35:04.226Z,5.32
2019-03-13T06:40:05.733Z,5.49
2019-03-13T06:45:04.003Z,5.54
2019-03-13T06:50:05.205Z,5.7
2019-03-13T06:55:04.372Z,5.77
2019-03-13T07:00:02.751Z,5.8
2019-03-13T07:05:04.295Z,5.81
2019-03-13T07:10:02.963Z,5.89
2019-03-13T07:15:02.923Z,5.97
2019-03-13T07:20:03.619Z,6.06
2019-03-13T07:25:04.469Z,6.1
2019-03-13T07:30:02.708Z,6.15
2019-03-13T07:35:03.906Z,6.13
2019-03-13T07:40:04.900Z,6.21
2019-03-13T07:45:03.035Z,6.25
2019-03-13T07:50:03.875Z,6.17
2019-03-13T07:55:05.347Z,6.14
2019-03-13T08:00:04.516Z,6.15
2019-03-13T08:05:05.093Z,6.29
2019-03-13T08:10:04.304Z,6.36
2019-03-13T08:15:02.725Z,6.67
2019-03-13T08:20:04.127Z,6.66
2019-03-13T08:25:07.851Z,6.59
2019-03-13T08:30:02.347Z,6.54
2019-03-13T08:35:04.676Z,6.53
2019-03-13T08:40:04.053Z,6.5
2019-03-13T08:45:02.585Z,6.48
2019-03-13T08:50:04.839Z,6.46
2019-03-13T08:55:03.971Z,6.5
2019-03-13T09:00:04.209Z,6.55
2019-03-13T09:05:06.086Z,6.6
2019-03-13T09:10:04.225Z,6.78
2019-03-13T09:15:02.004Z,6.73
2019-03-13T09:20:05.686Z,6.74
2019-03-13T09:25:11.488Z,6.7
2019-03-13T09:30:01.987Z,6.65
2019-03-13T09:35:04.808Z,6.66
2019-03-13T09:40:05.137Z,6.68
2019-03-13T09:45:01.879Z,6.66
2019-03-13T09:50:05.181Z,6.55
2019-03-13T09:55:04.697Z,6.51
2019-03-13T10:00:02.603Z,6.54
2019-03-13T10:05:03.845Z,6.54
2019-03-13T10:10:04.203Z,6.63
2019-03-13T10:15:01.728Z,6.7
2019-03-13T10:20:04.117Z,6.84
2019-03-13T10:25:04.642Z,6.96
2019-03-13T10:30:02.208Z,7.15
2019-03-13T10:35:04.368Z,7.35
2019-03-13T10:40:04.532Z,7.12
2019-03-13T10:45:02.072Z,7.19
2019-03-13T10:50:04.552Z,7.31
2019-03-13T10:55:03.180Z,7.37
2019-03-13T11:00:02.672Z,7.43
2019-03-13T11:05:02.896Z,7.53
2019-03-13T11:10:03.924Z,7.75
2019-03-13T11:15:02.532Z,7.62
2019-03-13T11:20:02.754Z,7.24
2019-03-13T11:25:06.210Z,7.04
2019-03-13T11:30:03.175Z,6.73
2019-03-13T11:35:04.613Z,6.74
2019-03-13T11:40:06.030Z,6.87
2019-03-13T11:45:02.452Z,6.99
2019-03-13T11:50:03.874Z,7.23
2019-03-13T11:55:05.349Z,7.43
2019-03-13T12:00:02.750Z,7.35
2019-03-13T12:05:05.587Z,7.24
2019-03-13T12:10:05.612Z,7.43
2019-03-13T12:15:04.018Z,7.63
2019-03-13T12:20:05.428Z,7.81
2019-03-13T12:25:04.905Z,7.91
2019-03-13T12:30:03.268Z,7.72
2019-03-13T12:35:04.021Z,7.64
2019-03-13T12:40:04.854Z,7.61
2019-03-13T12:45:02.433Z,7.53
2019-03-13T12:50:04.026Z,7.6
2019-03-13T12:55:04.308Z,7.63
2019-03-13T13:00:02.562Z,7.96
2019-03-13T13:05:04.665Z,7.93
2019-03-13T13:10:04.199Z,8.04
2019-03-13T13:15:02.431Z,7.98
2019-03-13T13:20:04.426Z,7.91
2019-03-13T13:25:05.605Z,7.57
2019-03-13T13:30:03.001Z,7.46
2019-03-13T13:35:05.346Z,7.28
2019-03-13T13:40:05.392Z,7.04
2019-03-13T13:45:03.124Z,6.96
2019-03-13T13:50:05.209Z,6.59
2019-03-13T13:55:04.211Z,6.38
2019-03-13T14:00:02.773Z,6.52
2019-03-13T14:05:04.383Z,6.63
2019-03-13T14:10:04.668Z,6.59
2019-03-13T14:15:03.004Z,6.81
2019-03-13T14:20:04.201Z,6.74
2019-03-13T14:25:04.814Z,6.82
2019-03-13T14:30:03.125Z,7.02
2019-03-13T14:35:04.426Z,7.26
2019-03-13T14:40:03.702Z,7.48
2019-03-13T14:45:02.473Z,7.58
2019-03-13T14:50:03.976Z,7.59
2019-03-13T14:55:04.159Z,7.67
2019-03-13T15:00:02.303Z,7.71
2019-03-13T15:05:03.992Z,7.71
2019-03-13T15:10:04.225Z,7.62
2019-03-13T15:15:03.128Z,7.45
2019-03-13T15:20:04.006Z,7.33
2019-03-13T15:25:05.915Z,7.26
2019-03-13T15:30:02.395Z,7.23
2019-03-13T15:35:05.813Z,7.19
2019-03-13T15:40:04.809Z,7.12
2019-03-13T15:45:02.293Z,6.97
2019-03-13T15:50:05.427Z,6.65
2019-03-13T15:55:04.385Z,6.46
2019-03-13T16:00:02.048Z,6.26
2019-03-13T16:05:04.492Z,6.14
2019-03-13T16:10:04.615Z,6.05
2019-03-13T16:15:02.266Z,6.09
2019-03-13T16:20:04.648Z,6.2
2019-03-13T16:25:04.937Z,6.25
2019-03-13T16:30:02.491Z,6.27
2019-03-13T16:35:04.123Z,6.23
2019-03-13T16:40:04.233Z,6.14
2019-03-13T16:45:01.797Z,6.02
2019-03-13T16:50:03.999Z,5.93
2019-03-13T16:55:04.107Z,5.62
2019-03-13T17:00:02.566Z,5.46
2019-03-13T17:05:04.085Z,5.1
2019-03-13T17:10:04.511Z,4.91
2019-03-13T17:15:02.213Z,4.87
2019-03-13T17:20:04.707Z,4.83
2019-03-13T17:25:05.487Z,4.83
2019-03-13T17:30:01.971Z,4.81
2019-03-13T17:35:04.508Z,4.88
2019-03-13T17:40:05.238Z,4.8
2019-03-13T17:45:02.017Z,4.9
2019-03-13T17:50:04.523Z,4.88
2019-03-13T17:55:03.327Z,5.06
2019-03-13T18:00:02.277Z,4.9
2019-03-13T18:05:02.581Z,5.01
2019-03-13T18:10:03.436Z,4.77
2019-03-13T18:15:02.011Z,4.81
2019-03-13T18:20:03.800Z,4.56
2019-03-13T18:25:03.279Z,4.48
2019-03-13T18:30:02.044Z,4.47
2019-03-13T18:35:03.421Z,4.47
2019-03-13T18:40:02.990Z,4.69
2019-03-13T18:45:01.767Z,4.66
2019-03-13T18:50:03.114Z,4.75
2019-03-13T18:55:04.717Z,4.79
2019-03-13T19:00:02.532Z,4.86
2019-03-13T19:05:04.284Z,5.02
2019-03-13T19:10:04.866Z,5.12
2019-03-13T19:15:02.645Z,5.16
2019-03-13T19:20:04.459Z,5.38
2019-03-13T19:25:04.472Z,5.34
2019-03-13T19:30:03.162Z,5.54
2019-03-13T19:35:04.141Z,5.49
2019-03-13T19:40:05.271Z,5.49
2019-03-13T19:45:02.340Z,5.51
2019-03-13T19:50:03.931Z,5.56
2019-03-13T19:55:04.079Z,5.6
2019-03-13T20:00:03.094Z,5.8
2019-03-13T20:05:03.745Z,5.79
2019-03-13T20:10:03.987Z,5.37
2019-03-13T20:15:03.740Z,4.9
2019-03-13T20:20:03.697Z,4.73
2019-03-13T20:25:05.480Z,4.62
2019-03-13T20:30:04.140Z,4.91
2019-03-13T20:35:06.120Z,4.79
2019-03-13T20:40:06.015Z,4.74
2019-03-13T20:45:05.095Z,4.75
2019-03-13T20:50:06.057Z,4.68
2019-03-13T20:55:06.274Z,4.76
2019-03-13T21:00:06.360Z,4.77
2019-03-13T21:05:06.574Z,4.81
2019-03-13T21:10:06.150Z,4.58
2019-03-13T21:15:06.198Z,4.6
2019-03-13T21:20:05.606Z,4.47
2019-03-13T21:25:06.537Z,4.5
2019-03-13T21:30:07.346Z,4.33
2019-03-13T21:35:05.297Z,4.29
2019-03-13T21:40:08.769Z,4.28
2019-03-13T21:45:21.133Z,4.26
2019-03-13T21:50:04.936Z,4.23
2019-03-13T21:55:05.224Z,4.23
2019-03-13T22:00:04.742Z,4.29
2019-03-13T22:05:05.476Z,4.29
2019-03-13T22:10:04.658Z,4.32
2019-03-13T22:15:11.423Z,4.32
2019-03-13T22:20:07.319Z,4.33
2019-03-13T22:25:08.447Z,4.41
2019-03-13T22:30:08.791Z,4.42
2019-03-13T22:35:06.558Z,4.24
2019-03-13T22:40:06.820Z,4.29
2019-03-13T22:45:07.524Z,4.26
2019-03-13T22:50:06.830Z,4.44
2019-03-13T22:55:06.160Z,4.38
2019-03-13T23:00:06.567Z,4.37
2019-03-13T23:05:06.584Z,4.39
2019-03-13T23:10:08.508Z,4.43
2019-03-13T23:15:05.473Z,4.45
2019-03-13T23:20:09.109Z,4.51
2019-03-13T23:25:08.534Z,4.44
2019-03-13T23:30:08.050Z,4.41
2019-03-13T23:35:09.561Z,4.43
2019-03-13T23:40:08.767Z,4.27
2019-03-13T23:45:04.945Z,4.22
2019-03-13T23:50:04.405Z,4.23
2019-03-13T23:55:04.506Z,4.18
